sensor_id;sensor_type;location;lat;lon;timestamp;P1;durP1;ratioP1;P2;durP2;ratioP2
66468;SDS011;53288;55.922;37.720;2022-07-03T00:02:12;9.60;;;3.38;;
66468;SDS011;53288;55.922;37.720;2022-07-03T00:04:39;3.78;;;3.42;;
66468;SDS011;53288;55.922;37.720;2022-07-03T00:07:05;7.20;;;3.08;;
66468;SDS011;53288;55.922;37.720;2022-07-03T00:09:31;4.82;;;2.40;;
66468;SDS011;53288;55.922;37.720;2022-07-03T00:11:57;6.20;;;3.42;;
66468;SDS011;53288;55.922;37.720;2022-07-03T00:14:23;6.20;;;3.53;;
66468;SDS011;53288;55.922;37.720;2022-07-03T00:16:49;8.50;;;3.15;;
66468;SDS011;53288;55.922;37.720;2022-07-03T00:19:15;3.45;;;2.70;;
66468;SDS011;53288;55.922;37.720;2022-07-03T00:21:46;3.42;;;2.92;;
66468;SDS011;53288;55.922;37.720;2022-07-03T00:24:28;8.27;;;2.70;;
66468;SDS011;53288;55.922;37.720;2022-07-03T00:27:02;10.23;;;2.90;;
66468;SDS011;53288;55.922;37.720;2022-07-03T00:29:32;11.48;;;3.05;;
66468;SDS011;53288;55.922;37.720;2022-07-03T00:32:03;9.50;;;3.05;;
66468;SDS011;53288;55.922;37.720;2022-07-03T00:34:29;5.80;;;2.97;;
66468;SDS011;53288;55.922;37.720;2022-07-03T00:36:55;4.82;;;3.50;;
66468;SDS011;53288;55.922;37.720;2022-07-03T00:39:22;15.63;;;3.15;;
66468;SDS011;53288;55.922;37.720;2022-07-03T00:41:58;9.90;;;3.00;;
66468;SDS011;53288;55.922;37.720;2022-07-03T00:44:28;15.77;;;3.17;;
66468;SDS011;53288;55.922;37.720;2022-07-03T00:46:55;10.43;;;3.70;;
66468;SDS011;53288;55.922;37.720;2022-07-03T00:49:22;8.65;;;3.33;;
66468;SDS011;53288;55.922;37.720;2022-07-03T00:51:52;16.17;;;3.10;;
66468;SDS011;53288;55.922;37.720;2022-07-03T00:54:21;7.97;;;2.75;;
66468;SDS011;53288;55.922;37.720;2022-07-03T00:56:51;7.03;;;2.95;;
66468;SDS011;53288;55.922;37.720;2022-07-03T00:59:18;11.75;;;2.78;;
66468;SDS011;53288;55.922;37.720;2022-07-03T01:01:45;7.03;;;3.33;;
66468;SDS011;53288;55.922;37.720;2022-07-03T01:06:51;12.50;;;3.75;;
66468;SDS011;53288;55.922;37.720;2022-07-03T01:09:22;10.65;;;3.45;;
66468;SDS011;53288;55.922;37.720;2022-07-03T01:12:07;8.80;;;3.35;;
66468;SDS011;53288;55.922;37.720;2022-07-03T01:15:04;16.52;;;3.85;;
66468;SDS011;53288;55.922;37.720;2022-07-03T01:17:36;20.88;;;4.30;;
66468;SDS011;53288;55.922;37.720;2022-07-03T01:20:04;10.77;;;3.53;;
66468;SDS011;53288;55.922;37.720;2022-07-03T01:22:36;5.25;;;3.55;;
66468;SDS011;53288;55.922;37.720;2022-07-03T01:25:13;16.00;;;3.78;;
66468;SDS011;53288;55.922;37.720;2022-07-03T01:30:39;11.80;;;3.58;;
66468;SDS011;53288;55.922;37.720;2022-07-03T01:38:33;10.13;;;3.45;;
66468;SDS011;53288;55.922;37.720;2022-07-03T01:41:02;6.97;;;3.95;;
66468;SDS011;53288;55.922;37.720;2022-07-03T01:43:33;8.48;;;3.20;;
66468;SDS011;53288;55.922;37.720;2022-07-03T01:46:01;4.88;;;3.92;;
66468;SDS011;53288;55.922;37.720;2022-07-03T01:48:28;12.55;;;4.30;;
66468;SDS011;53288;55.922;37.720;2022-07-03T01:50:55;7.72;;;3.40;;
66468;SDS011;53288;55.922;37.720;2022-07-03T01:53:23;13.55;;;4.32;;
66468;SDS011;53288;55.922;37.720;2022-07-03T01:55:51;13.13;;;3.33;;
66468;SDS011;53288;55.922;37.720;2022-07-03T01:58:21;8.18;;;3.50;;
66468;SDS011;53288;55.922;37.720;2022-07-03T02:00:47;7.97;;;3.72;;
66468;SDS011;53288;55.922;37.720;2022-07-03T02:03:21;6.00;;;3.70;;
66468;SDS011;53288;55.922;37.720;2022-07-03T02:05:51;6.60;;;2.85;;
66468;SDS011;53288;55.922;37.720;2022-07-03T02:11:08;9.73;;;3.83;;
66468;SDS011;53288;55.922;37.720;2022-07-03T02:16:34;11.57;;;3.80;;
66468;SDS011;53288;55.922;37.720;2022-07-03T02:19:08;9.73;;;3.75;;
66468;SDS011;53288;55.922;37.720;2022-07-03T02:21:38;6.45;;;3.85;;
66468;SDS011;53288;55.922;37.720;2022-07-03T02:27:04;8.57;;;3.55;;
66468;SDS011;53288;55.922;37.720;2022-07-03T02:29:36;8.13;;;3.58;;
66468;SDS011;53288;55.922;37.720;2022-07-03T02:32:04;6.13;;;3.95;;
66468;SDS011;53288;55.922;37.720;2022-07-03T02:34:32;4.88;;;3.05;;
66468;SDS011;53288;55.922;37.720;2022-07-03T02:37:05;4.72;;;3.17;;
66468;SDS011;53288;55.922;37.720;2022-07-03T02:39:41;17.63;;;3.20;;
66468;SDS011;53288;55.922;37.720;2022-07-03T02:42:25;9.68;;;3.08;;
66468;SDS011;53288;55.922;37.720;2022-07-03T02:44:56;5.28;;;3.92;;
66468;SDS011;53288;55.922;37.720;2022-07-03T02:47:27;12.23;;;3.10;;
66468;SDS011;53288;55.922;37.720;2022-07-03T02:50:04;11.13;;;3.45;;
66468;SDS011;53288;55.922;37.720;2022-07-03T02:55:08;12.23;;;3.20;;
66468;SDS011;53288;55.922;37.720;2022-07-03T02:57:42;3.17;;;2.88;;
66468;SDS011;53288;55.922;37.720;2022-07-03T03:00:11;4.45;;;3.35;;
66468;SDS011;53288;55.922;37.720;2022-07-03T03:08:00;4.53;;;2.90;;
66468;SDS011;53288;55.922;37.720;2022-07-03T03:10:46;3.85;;;2.58;;
66468;SDS011;53288;55.922;37.720;2022-07-03T03:13:14;5.57;;;3.47;;
66468;SDS011;53288;55.922;37.720;2022-07-03T03:15:58;3.60;;;3.30;;
66468;SDS011;53288;55.922;37.720;2022-07-03T03:18:31;13.63;;;3.15;;
66468;SDS011;53288;55.922;37.720;2022-07-03T03:21:00;8.80;;;3.95;;
66468;SDS011;53288;55.922;37.720;2022-07-03T03:25:56;6.72;;;2.90;;
66468;SDS011;53288;55.922;37.720;2022-07-03T03:28:24;4.22;;;3.08;;
66468;SDS011;53288;55.922;37.720;2022-07-03T03:30:50;5.68;;;3.20;;
66468;SDS011;53288;55.922;37.720;2022-07-03T03:33:17;5.65;;;3.22;;
66468;SDS011;53288;55.922;37.720;2022-07-03T03:35:44;10.10;;;3.25;;
66468;SDS011;53288;55.922;37.720;2022-07-03T03:38:11;11.38;;;3.40;;
66468;SDS011;53288;55.922;37.720;2022-07-03T03:40:37;6.47;;;3.65;;
66468;SDS011;53288;55.922;37.720;2022-07-03T03:43:03;7.22;;;3.40;;
66468;SDS011;53288;55.922;37.720;2022-07-03T03:45:30;6.05;;;3.63;;
66468;SDS011;53288;55.922;37.720;2022-07-03T03:47:56;4.30;;;3.63;;
66468;SDS011;53288;55.922;37.720;2022-07-03T03:50:22;10.13;;;3.92;;
66468;SDS011;53288;55.922;37.720;2022-07-03T03:52:48;8.43;;;2.97;;
66468;SDS011;53288;55.922;37.720;2022-07-03T03:55:14;8.27;;;2.97;;
66468;SDS011;53288;55.922;37.720;2022-07-03T03:57:40;7.32;;;3.33;;
66468;SDS011;53288;55.922;37.720;2022-07-03T04:00:06;10.32;;;3.33;;
66468;SDS011;53288;55.922;37.720;2022-07-03T04:02:38;7.38;;;3.08;;
66468;SDS011;53288;55.922;37.720;2022-07-03T04:05:04;4.78;;;3.60;;
66468;SDS011;53288;55.922;37.720;2022-07-03T04:07:30;8.30;;;2.97;;
66468;SDS011;53288;55.922;37.720;2022-07-03T04:09:57;10.90;;;3.85;;
66468;SDS011;53288;55.922;37.720;2022-07-03T04:12:23;6.00;;;4.10;;
66468;SDS011;53288;55.922;37.720;2022-07-03T04:14:49;14.30;;;3.65;;
66468;SDS011;53288;55.922;37.720;2022-07-03T04:17:15;13.80;;;2.97;;
66468;SDS011;53288;55.922;37.720;2022-07-03T04:19:41;5.60;;;3.15;;
66468;SDS011;53288;55.922;37.720;2022-07-03T04:22:08;11.57;;;3.08;;
66468;SDS011;53288;55.922;37.720;2022-07-03T04:24:35;6.40;;;3.67;;
66468;SDS011;53288;55.922;37.720;2022-07-03T04:27:01;5.80;;;3.25;;
66468;SDS011;53288;55.922;37.720;2022-07-03T04:29:28;11.68;;;3.08;;
66468;SDS011;53288;55.922;37.720;2022-07-03T04:31:53;5.03;;;3.42;;
66468;SDS011;53288;55.922;37.720;2022-07-03T04:34:19;11.63;;;4.03;;
66468;SDS011;53288;55.922;37.720;2022-07-03T04:36:45;11.43;;;4.80;;
66468;SDS011;53288;55.922;37.720;2022-07-03T04:39:11;11.68;;;4.18;;
66468;SDS011;53288;55.922;37.720;2022-07-03T04:41:37;16.75;;;4.97;;
66468;SDS011;53288;55.922;37.720;2022-07-03T04:44:03;5.80;;;3.88;;
66468;SDS011;53288;55.922;37.720;2022-07-03T04:46:29;5.82;;;4.05;;
66468;SDS011;53288;55.922;37.720;2022-07-03T04:48:55;17.13;;;4.18;;
66468;SDS011;53288;55.922;37.720;2022-07-03T04:51:21;20.05;;;4.22;;
66468;SDS011;53288;55.922;37.720;2022-07-03T04:53:47;8.60;;;4.10;;
66468;SDS011;53288;55.922;37.720;2022-07-03T04:56:13;11.38;;;3.95;;
66468;SDS011;53288;55.922;37.720;2022-07-03T04:58:39;4.30;;;3.90;;
66468;SDS011;53288;55.922;37.720;2022-07-03T05:01:05;9.50;;;3.95;;
66468;SDS011;53288;55.922;37.720;2022-07-03T05:03:31;16.88;;;4.68;;
66468;SDS011;53288;55.922;37.720;2022-07-03T05:05:58;15.55;;;4.25;;
66468;SDS011;53288;55.922;37.720;2022-07-03T05:08:24;23.23;;;4.82;;
66468;SDS011;53288;55.922;37.720;2022-07-03T05:10:50;7.95;;;4.15;;
66468;SDS011;53288;55.922;37.720;2022-07-03T05:13:16;16.00;;;4.32;;
66468;SDS011;53288;55.922;37.720;2022-07-03T05:15:41;14.85;;;5.65;;
66468;SDS011;53288;55.922;37.720;2022-07-03T05:18:08;9.82;;;3.85;;
66468;SDS011;53288;55.922;37.720;2022-07-03T05:20:34;16.73;;;4.65;;
66468;SDS011;53288;55.922;37.720;2022-07-03T05:23:01;14.45;;;3.97;;
66468;SDS011;53288;55.922;37.720;2022-07-03T05:25:28;9.85;;;4.15;;
66468;SDS011;53288;55.922;37.720;2022-07-03T05:27:55;14.82;;;4.47;;
66468;SDS011;53288;55.922;37.720;2022-07-03T05:30:21;16.00;;;5.55;;
66468;SDS011;53288;55.922;37.720;2022-07-03T05:32:49;8.25;;;4.93;;
66468;SDS011;53288;55.922;37.720;2022-07-03T05:35:15;12.90;;;5.18;;
66468;SDS011;53288;55.922;37.720;2022-07-03T05:37:41;6.38;;;4.22;;
66468;SDS011;53288;55.922;37.720;2022-07-03T05:40:07;15.35;;;4.40;;
66468;SDS011;53288;55.922;37.720;2022-07-03T05:42:34;13.10;;;4.85;;
66468;SDS011;53288;55.922;37.720;2022-07-03T05:45:00;8.70;;;4.47;;
66468;SDS011;53288;55.922;37.720;2022-07-03T05:47:29;10.00;;;4.18;;
66468;SDS011;53288;55.922;37.720;2022-07-03T05:49:55;4.43;;;4.10;;
66468;SDS011;53288;55.922;37.720;2022-07-03T05:52:21;4.85;;;4.38;;
66468;SDS011;53288;55.922;37.720;2022-07-03T05:54:48;7.55;;;4.18;;
66468;SDS011;53288;55.922;37.720;2022-07-03T05:57:15;6.43;;;4.47;;
66468;SDS011;53288;55.922;37.720;2022-07-03T05:59:42;7.38;;;3.67;;
66468;SDS011;53288;55.922;37.720;2022-07-03T06:02:07;8.88;;;4.60;;
66468;SDS011;53288;55.922;37.720;2022-07-03T06:04:33;4.75;;;4.15;;
66468;SDS011;53288;55.922;37.720;2022-07-03T06:07:00;10.75;;;4.72;;
66468;SDS011;53288;55.922;37.720;2022-07-03T06:09:25;5.53;;;4.82;;
66468;SDS011;53288;55.922;37.720;2022-07-03T06:11:51;12.77;;;4.18;;
66468;SDS011;53288;55.922;37.720;2022-07-03T06:14:17;27.73;;;5.03;;
66468;SDS011;53288;55.922;37.720;2022-07-03T06:16:43;7.75;;;3.53;;
66468;SDS011;53288;55.922;37.720;2022-07-03T06:19:09;7.53;;;4.57;;
66468;SDS011;53288;55.922;37.720;2022-07-03T06:21:35;5.25;;;3.42;;
66468;SDS011;53288;55.922;37.720;2022-07-03T06:24:01;13.50;;;4.30;;
66468;SDS011;53288;55.922;37.720;2022-07-03T06:26:27;13.05;;;5.28;;
66468;SDS011;53288;55.922;37.720;2022-07-03T06:28:54;16.13;;;4.28;;
66468;SDS011;53288;55.922;37.720;2022-07-03T06:31:21;5.70;;;4.03;;
66468;SDS011;53288;55.922;37.720;2022-07-03T06:33:47;18.67;;;4.28;;
66468;SDS011;53288;55.922;37.720;2022-07-03T06:36:13;21.13;;;5.00;;
66468;SDS011;53288;55.922;37.720;2022-07-03T06:38:39;15.82;;;4.85;;
66468;SDS011;53288;55.922;37.720;2022-07-03T06:41:05;24.73;;;11.27;;
66468;SDS011;53288;55.922;37.720;2022-07-03T06:43:31;15.00;;;4.40;;
66468;SDS011;53288;55.922;37.720;2022-07-03T06:45:57;6.80;;;4.03;;
66468;SDS011;53288;55.922;37.720;2022-07-03T06:48:23;9.00;;;5.22;;
66468;SDS011;53288;55.922;37.720;2022-07-03T06:50:49;13.77;;;5.50;;
66468;SDS011;53288;55.922;37.720;2022-07-03T06:53:15;8.73;;;4.32;;
66468;SDS011;53288;55.922;37.720;2022-07-03T06:55:42;6.15;;;4.75;;
66468;SDS011;53288;55.922;37.720;2022-07-03T06:58:08;10.10;;;4.47;;
66468;SDS011;53288;55.922;37.720;2022-07-03T07:00:34;11.50;;;4.20;;
66468;SDS011;53288;55.922;37.720;2022-07-03T07:03:02;8.82;;;4.53;;
66468;SDS011;53288;55.922;37.720;2022-07-03T07:05:28;10.65;;;3.92;;
66468;SDS011;53288;55.922;37.720;2022-07-03T07:07:54;10.20;;;3.95;;
66468;SDS011;53288;55.922;37.720;2022-07-03T07:10:20;4.38;;;3.97;;
66468;SDS011;53288;55.922;37.720;2022-07-03T07:12:46;25.50;;;4.70;;
66468;SDS011;53288;55.922;37.720;2022-07-03T07:15:12;4.95;;;4.10;;
66468;SDS011;53288;55.922;37.720;2022-07-03T07:17:40;10.40;;;3.95;;
66468;SDS011;53288;55.922;37.720;2022-07-03T07:20:06;10.30;;;3.95;;
66468;SDS011;53288;55.922;37.720;2022-07-03T07:22:32;9.95;;;4.15;;
66468;SDS011;53288;55.922;37.720;2022-07-03T07:25:00;10.90;;;4.63;;
66468;SDS011;53288;55.922;37.720;2022-07-03T07:27:28;5.70;;;4.32;;
66468;SDS011;53288;55.922;37.720;2022-07-03T07:29:55;7.90;;;3.47;;
66468;SDS011;53288;55.922;37.720;2022-07-03T07:32:21;7.50;;;3.10;;
66468;SDS011;53288;55.922;37.720;2022-07-03T07:34:47;7.80;;;3.08;;
66468;SDS011;53288;55.922;37.720;2022-07-03T07:37:13;5.35;;;2.75;;
66468;SDS011;53288;55.922;37.720;2022-07-03T07:39:39;10.85;;;3.38;;
66468;SDS011;53288;55.922;37.720;2022-07-03T07:42:05;21.80;;;3.45;;
66468;SDS011;53288;55.922;37.720;2022-07-03T07:44:31;8.40;;;2.95;;
66468;SDS011;53288;55.922;37.720;2022-07-03T07:46:57;14.10;;;3.42;;
66468;SDS011;53288;55.922;37.720;2022-07-03T07:49:23;13.45;;;3.55;;
66468;SDS011;53288;55.922;37.720;2022-07-03T07:51:50;9.93;;;3.90;;
66468;SDS011;53288;55.922;37.720;2022-07-03T07:54:16;9.80;;;3.38;;
66468;SDS011;53288;55.922;37.720;2022-07-03T07:56:42;15.38;;;3.28;;
66468;SDS011;53288;55.922;37.720;2022-07-03T07:59:08;9.07;;;3.20;;
66468;SDS011;53288;55.922;37.720;2022-07-03T08:01:34;17.30;;;3.55;;
66468;SDS011;53288;55.922;37.720;2022-07-03T08:04:19;6.72;;;2.80;;
66468;SDS011;53288;55.922;37.720;2022-07-03T08:07:03;9.65;;;2.80;;
66468;SDS011;53288;55.922;37.720;2022-07-03T08:09:29;12.57;;;2.78;;
66468;SDS011;53288;55.922;37.720;2022-07-03T08:11:55;2.72;;;2.53;;
66468;SDS011;53288;55.922;37.720;2022-07-03T08:14:21;8.25;;;2.85;;
66468;SDS011;53288;55.922;37.720;2022-07-03T08:16:48;8.90;;;3.38;;
66468;SDS011;53288;55.922;37.720;2022-07-03T08:19:14;4.72;;;2.70;;
66468;SDS011;53288;55.922;37.720;2022-07-03T08:21:40;8.05;;;2.85;;
66468;SDS011;53288;55.922;37.720;2022-07-03T08:24:07;3.92;;;2.65;;
66468;SDS011;53288;55.922;37.720;2022-07-03T08:26:33;4.57;;;3.35;;
66468;SDS011;53288;55.922;37.720;2022-07-03T08:28:59;7.22;;;2.70;;
66468;SDS011;53288;55.922;37.720;2022-07-03T08:31:25;10.63;;;3.28;;
66468;SDS011;53288;55.922;37.720;2022-07-03T08:33:51;6.93;;;3.25;;
66468;SDS011;53288;55.922;37.720;2022-07-03T08:36:17;9.55;;;3.17;;
66468;SDS011;53288;55.922;37.720;2022-07-03T08:38:43;7.50;;;2.90;;
66468;SDS011;53288;55.922;37.720;2022-07-03T08:41:10;10.45;;;2.58;;
66468;SDS011;53288;55.922;37.720;2022-07-03T08:43:37;28.98;;;3.47;;
66468;SDS011;53288;55.922;37.720;2022-07-03T08:46:04;7.88;;;2.65;;
66468;SDS011;53288;55.922;37.720;2022-07-03T08:48:30;5.43;;;3.05;;
66468;SDS011;53288;55.922;37.720;2022-07-03T08:50:58;4.60;;;2.67;;
66468;SDS011;53288;55.922;37.720;2022-07-03T08:53:25;7.57;;;2.75;;
66468;SDS011;53288;55.922;37.720;2022-07-03T08:55:51;6.57;;;2.85;;
66468;SDS011;53288;55.922;37.720;2022-07-03T08:58:17;15.45;;;3.00;;
66468;SDS011;53288;55.922;37.720;2022-07-03T09:03:16;7.75;;;2.58;;
66468;SDS011;53288;55.922;37.720;2022-07-03T09:05:42;8.60;;;2.97;;
66468;SDS011;53288;55.922;37.720;2022-07-03T09:08:08;3.13;;;2.80;;
66468;SDS011;53288;55.922;37.720;2022-07-03T09:10:35;3.72;;;2.83;;
66468;SDS011;53288;55.922;37.720;2022-07-03T09:13:01;6.35;;;2.80;;
66468;SDS011;53288;55.922;37.720;2022-07-03T09:15:27;10.23;;;2.75;;
66468;SDS011;53288;55.922;37.720;2022-07-03T09:18:03;10.55;;;2.78;;
66468;SDS011;53288;55.922;37.720;2022-07-03T09:20:31;7.32;;;2.88;;
66468;SDS011;53288;55.922;37.720;2022-07-03T09:23:17;4.78;;;2.58;;
66468;SDS011;53288;55.922;37.720;2022-07-03T09:31:11;10.85;;;2.97;;
66468;SDS011;53288;55.922;37.720;2022-07-03T09:33:51;6.63;;;3.05;;
66468;SDS011;53288;55.922;37.720;2022-07-03T09:39:26;3.00;;;2.60;;
66468;SDS011;53288;55.922;37.720;2022-07-03T09:41:59;6.47;;;2.50;;
66468;SDS011;53288;55.922;37.720;2022-07-03T09:44:38;2.87;;;2.57;;
66468;SDS011;53288;55.922;37.720;2022-07-03T09:47:17;5.38;;;2.70;;
66468;SDS011;53288;55.922;37.720;2022-07-03T09:50:03;4.88;;;2.65;;
66468;SDS011;53288;55.922;37.720;2022-07-03T09:52:47;15.50;;;2.55;;
66468;SDS011;53288;55.922;37.720;2022-07-03T09:55:14;6.40;;;2.75;;
66468;SDS011;53288;55.922;37.720;2022-07-03T10:02:53;2.78;;;2.58;;
66468;SDS011;53288;55.922;37.720;2022-07-03T10:05:45;13.45;;;2.85;;
66468;SDS011;53288;55.922;37.720;2022-07-03T10:08:12;3.63;;;2.50;;
66468;SDS011;53288;55.922;37.720;2022-07-03T10:10:41;3.33;;;2.35;;
66468;SDS011;53288;55.922;37.720;2022-07-03T10:13:09;3.58;;;2.63;;
66468;SDS011;53288;55.922;37.720;2022-07-03T10:15:36;16.77;;;3.15;;
66468;SDS011;53288;55.922;37.720;2022-07-03T10:18:07;20.02;;;3.33;;
66468;SDS011;53288;55.922;37.720;2022-07-03T10:20:35;12.30;;;3.20;;
66468;SDS011;53288;55.922;37.720;2022-07-03T10:23:06;8.55;;;3.03;;
66468;SDS011;53288;55.922;37.720;2022-07-03T10:25:33;12.20;;;2.80;;
66468;SDS011;53288;55.922;37.720;2022-07-03T10:27:59;7.25;;;3.40;;
66468;SDS011;53288;55.922;37.720;2022-07-03T10:30:26;4.90;;;2.10;;
66468;SDS011;53288;55.922;37.720;2022-07-03T10:32:53;6.18;;;2.50;;
66468;SDS011;53288;55.922;37.720;2022-07-03T10:35:33;4.82;;;2.70;;
66468;SDS011;53288;55.922;37.720;2022-07-03T10:43:38;6.55;;;2.72;;
66468;SDS011;53288;55.922;37.720;2022-07-03T10:46:32;5.50;;;2.65;;
66468;SDS011;53288;55.922;37.720;2022-07-03T10:51:25;4.47;;;2.70;;
66468;SDS011;53288;55.922;37.720;2022-07-03T11:07:34;6.90;;;2.70;;
66468;SDS011;53288;55.922;37.720;2022-07-03T11:12:57;6.38;;;2.75;;
66468;SDS011;53288;55.922;37.720;2022-07-03T11:15:28;5.03;;;1.98;;
66468;SDS011;53288;55.922;37.720;2022-07-03T11:18:14;14.35;;;2.13;;
66468;SDS011;53288;55.922;37.720;2022-07-03T11:21:08;6.70;;;1.63;;
66468;SDS011;53288;55.922;37.720;2022-07-03T11:36:11;7.15;;;1.90;;
66468;SDS011;53288;55.922;37.720;2022-07-03T11:41:23;2.42;;;2.25;;
66468;SDS011;53288;55.922;37.720;2022-07-03T11:43:51;7.30;;;2.40;;
66468;SDS011;53288;55.922;37.720;2022-07-03T11:46:22;2.75;;;2.20;;
66468;SDS011;53288;55.922;37.720;2022-07-03T11:48:50;3.25;;;2.40;;
66468;SDS011;53288;55.922;37.720;2022-07-03T11:51:29;8.63;;;1.80;;
66468;SDS011;53288;55.922;37.720;2022-07-03T11:53:55;5.25;;;2.65;;
66468;SDS011;53288;55.922;37.720;2022-07-03T11:56:21;7.18;;;2.28;;
66468;SDS011;53288;55.922;37.720;2022-07-03T11:58:48;4.10;;;2.30;;
66468;SDS011;53288;55.922;37.720;2022-07-03T12:04:09;5.65;;;2.22;;
66468;SDS011;53288;55.922;37.720;2022-07-03T12:06:42;4.03;;;2.03;;
66468;SDS011;53288;55.922;37.720;2022-07-03T12:09:22;14.45;;;2.15;;
66468;SDS011;53288;55.922;37.720;2022-07-03T12:12:02;2.67;;;2.13;;
66468;SDS011;53288;55.922;37.720;2022-07-03T12:14:35;7.88;;;2.13;;
66468;SDS011;53288;55.922;37.720;2022-07-03T12:17:05;12.02;;;2.25;;
66468;SDS011;53288;55.922;37.720;2022-07-03T12:19:32;4.10;;;2.22;;
66468;SDS011;53288;55.922;37.720;2022-07-03T12:21:58;4.60;;;1.70;;
66468;SDS011;53288;55.922;37.720;2022-07-03T12:24:24;19.23;;;1.90;;
66468;SDS011;53288;55.922;37.720;2022-07-03T12:26:50;7.25;;;1.88;;
66468;SDS011;53288;55.922;37.720;2022-07-03T12:29:16;2.40;;;1.50;;
66468;SDS011;53288;55.922;37.720;2022-07-03T12:31:44;4.97;;;1.90;;
66468;SDS011;53288;55.922;37.720;2022-07-03T12:34:11;4.63;;;1.60;;
66468;SDS011;53288;55.922;37.720;2022-07-03T12:36:39;7.95;;;1.50;;
66468;SDS011;53288;55.922;37.720;2022-07-03T12:39:06;2.83;;;1.60;;
66468;SDS011;53288;55.922;37.720;2022-07-03T12:41:32;3.75;;;1.80;;
66468;SDS011;53288;55.922;37.720;2022-07-03T12:43:58;13.68;;;1.50;;
66468;SDS011;53288;55.922;37.720;2022-07-03T12:48:57;5.85;;;1.88;;
66468;SDS011;53288;55.922;37.720;2022-07-03T12:51:40;2.15;;;1.60;;
66468;SDS011;53288;55.922;37.720;2022-07-03T12:54:10;7.70;;;1.77;;
66468;SDS011;53288;55.922;37.720;2022-07-03T12:57:07;3.70;;;1.48;;
66468;SDS011;53288;55.922;37.720;2022-07-03T13:00:03;3.03;;;1.30;;
66468;SDS011;53288;55.922;37.720;2022-07-03T13:02:32;10.60;;;1.40;;
66468;SDS011;53288;55.922;37.720;2022-07-03T13:04:59;1.70;;;1.50;;
66468;SDS011;53288;55.922;37.720;2022-07-03T13:07:29;8.40;;;1.42;;
66468;SDS011;53288;55.922;37.720;2022-07-03T13:09:59;7.68;;;1.55;;
66468;SDS011;53288;55.922;37.720;2022-07-03T13:12:29;3.35;;;1.60;;
66468;SDS011;53288;55.922;37.720;2022-07-03T13:14:55;2.13;;;1.30;;
66468;SDS011;53288;55.922;37.720;2022-07-03T13:17:22;1.70;;;1.52;;
66468;SDS011;53288;55.922;37.720;2022-07-03T13:19:48;5.05;;;1.50;;
66468;SDS011;53288;55.922;37.720;2022-07-03T13:22:14;9.90;;;1.40;;
66468;SDS011;53288;55.922;37.720;2022-07-03T13:24:40;4.65;;;1.40;;
66468;SDS011;53288;55.922;37.720;2022-07-03T13:27:05;4.88;;;1.38;;
66468;SDS011;53288;55.922;37.720;2022-07-03T13:29:31;8.77;;;1.40;;
66468;SDS011;53288;55.922;37.720;2022-07-03T13:31:57;15.23;;;1.30;;
66468;SDS011;53288;55.922;37.720;2022-07-03T13:34:23;1.92;;;1.20;;
66468;SDS011;53288;55.922;37.720;2022-07-03T13:36:49;9.43;;;1.10;;
66468;SDS011;53288;55.922;37.720;2022-07-03T13:39:15;8.32;;;1.30;;
66468;SDS011;53288;55.922;37.720;2022-07-03T13:41:42;4.38;;;1.52;;
66468;SDS011;53288;55.922;37.720;2022-07-03T13:44:08;4.22;;;1.70;;
66468;SDS011;53288;55.922;37.720;2022-07-03T13:46:34;5.93;;;1.38;;
66468;SDS011;53288;55.922;37.720;2022-07-03T13:49:00;2.25;;;1.70;;
66468;SDS011;53288;55.922;37.720;2022-07-03T13:51:26;8.43;;;1.30;;
66468;SDS011;53288;55.922;37.720;2022-07-03T13:53:52;13.07;;;1.67;;
66468;SDS011;53288;55.922;37.720;2022-07-03T13:56:18;13.13;;;1.30;;
66468;SDS011;53288;55.922;37.720;2022-07-03T13:58:44;6.05;;;1.40;;
66468;SDS011;53288;55.922;37.720;2022-07-03T14:01:11;4.88;;;1.45;;
66468;SDS011;53288;55.922;37.720;2022-07-03T14:03:37;14.32;;;1.70;;
66468;SDS011;53288;55.922;37.720;2022-07-03T14:06:03;2.78;;;1.60;;
66468;SDS011;53288;55.922;37.720;2022-07-03T14:08:29;8.32;;;1.85;;
66468;SDS011;53288;55.922;37.720;2022-07-03T14:10:55;1.77;;;1.20;;
66468;SDS011;53288;55.922;37.720;2022-07-03T14:13:21;15.93;;;1.70;;
66468;SDS011;53288;55.922;37.720;2022-07-03T14:15:47;2.63;;;1.40;;
66468;SDS011;53288;55.922;37.720;2022-07-03T14:18:13;7.35;;;1.50;;
66468;SDS011;53288;55.922;37.720;2022-07-03T14:20:39;4.03;;;1.60;;
66468;SDS011;53288;55.922;37.720;2022-07-03T14:23:05;5.68;;;1.60;;
66468;SDS011;53288;55.922;37.720;2022-07-03T14:25:31;9.95;;;1.40;;
66468;SDS011;53288;55.922;37.720;2022-07-03T14:27:57;7.55;;;1.45;;
66468;SDS011;53288;55.922;37.720;2022-07-03T14:30:43;3.38;;;1.63;;
66468;SDS011;53288;55.922;37.720;2022-07-03T14:33:27;9.23;;;1.48;;
66468;SDS011;53288;55.922;37.720;2022-07-03T14:35:53;15.50;;;1.95;;
66468;SDS011;53288;55.922;37.720;2022-07-03T14:38:19;7.13;;;1.55;;
66468;SDS011;53288;55.922;37.720;2022-07-03T14:40:45;11.25;;;1.40;;
66468;SDS011;53288;55.922;37.720;2022-07-03T14:43:11;4.57;;;1.40;;
66468;SDS011;53288;55.922;37.720;2022-07-03T14:45:37;14.95;;;1.30;;
66468;SDS011;53288;55.922;37.720;2022-07-03T14:48:03;3.25;;;1.25;;
66468;SDS011;53288;55.922;37.720;2022-07-03T14:50:30;2.13;;;1.33;;
66468;SDS011;53288;55.922;37.720;2022-07-03T14:52:56;7.07;;;1.30;;
66468;SDS011;53288;55.922;37.720;2022-07-03T14:55:22;7.10;;;1.40;;
66468;SDS011;53288;55.922;37.720;2022-07-03T14:57:54;1.40;;;1.15;;
66468;SDS011;53288;55.922;37.720;2022-07-03T15:00:26;11.13;;;1.13;;
66468;SDS011;53288;55.922;37.720;2022-07-03T15:03:05;1.10;;;1.00;;
66468;SDS011;53288;55.922;37.720;2022-07-03T15:05:34;1.42;;;1.00;;
66468;SDS011;53288;55.922;37.720;2022-07-03T15:10:51;1.92;;;1.00;;
66468;SDS011;53288;55.922;37.720;2022-07-03T15:13:18;7.25;;;1.27;;
66468;SDS011;53288;55.922;37.720;2022-07-03T15:15:45;6.00;;;1.05;;
66468;SDS011;53288;55.922;37.720;2022-07-03T15:18:18;1.23;;;1.00;;
66468;SDS011;53288;55.922;37.720;2022-07-03T15:20:47;23.65;;;1.40;;
66468;SDS011;53288;55.922;37.720;2022-07-03T15:23:15;1.35;;;0.90;;
66468;SDS011;53288;55.922;37.720;2022-07-03T15:25:43;1.38;;;1.10;;
66468;SDS011;53288;55.922;37.720;2022-07-03T15:28:10;1.50;;;1.17;;
66468;SDS011;53288;55.922;37.720;2022-07-03T15:30:37;5.10;;;1.17;;
66468;SDS011;53288;55.922;37.720;2022-07-03T15:33:03;5.63;;;1.40;;
66468;SDS011;53288;55.922;37.720;2022-07-03T15:35:29;6.25;;;1.10;;
66468;SDS011;53288;55.922;37.720;2022-07-03T15:38:01;7.80;;;1.35;;
66468;SDS011;53288;55.922;37.720;2022-07-03T15:40:54;13.02;;;1.40;;
66468;SDS011;53288;55.922;37.720;2022-07-03T15:54:02;2.35;;;1.30;;
66468;SDS011;53288;55.922;37.720;2022-07-03T15:56:32;4.03;;;1.25;;
66468;SDS011;53288;55.922;37.720;2022-07-03T15:59:01;13.93;;;1.67;;
66468;SDS011;53288;55.922;37.720;2022-07-03T16:01:29;17.08;;;1.90;;
66468;SDS011;53288;55.922;37.720;2022-07-03T16:04:27;6.80;;;1.17;;
66468;SDS011;53288;55.922;37.720;2022-07-03T16:07:12;3.65;;;1.48;;
66468;SDS011;53288;55.922;37.720;2022-07-03T16:09:40;4.07;;;1.45;;
66468;SDS011;53288;55.922;37.720;2022-07-03T16:12:08;11.20;;;1.98;;
66468;SDS011;53288;55.922;37.720;2022-07-03T16:14:43;4.90;;;1.27;;
66468;SDS011;53288;55.922;37.720;2022-07-03T16:17:09;4.55;;;1.20;;
66468;SDS011;53288;55.922;37.720;2022-07-03T16:19:37;6.30;;;1.48;;
66468;SDS011;53288;55.922;37.720;2022-07-03T16:22:05;6.50;;;1.33;;
66468;SDS011;53288;55.922;37.720;2022-07-03T16:24:31;10.55;;;1.30;;
66468;SDS011;53288;55.922;37.720;2022-07-03T16:26:58;9.30;;;1.55;;